JPS weather

Jps Field
Bald Knob, AR, Arkansas, United States

Public forecast

Using degrees Fahrenheit for public forecast. Weather courtesy of forecast.io.

METAR (pilot weather report)

Closest report is Searcy Municipal Airport, 9.3 nm (17.3 km) WSW. Retrieved 2019/07/18 10:36 UTC (0 seconds ago):

KSRC 181036Z AUTO 00000KT 5SM BR FEW006 24/24 A3001 RMK AO2

TAF (pilot weather forecast)

Closest forecast is Little Rock Air Force Base, 36.1 nm (66.9 km) SW. Retrieved 2019/07/18 07:09 UTC (3 hours ago):

TAF TAF KLRF 180705Z 1807/1913 21005KT 9999 FEW040 FEW250 QNH2998INS BECMG 1814/1815 23010G15KT 9999 BKN040 BKN200 QNH2991INS BECMG 1822/1823 20006KT 9999 SCT045 SCT200 QNH2992INS TX36/1821Z TN24/1811Z